Time;durP1;ratioP1;P1;durP2;ratioP2;P2;SDS_P1;SDS_P2;PMS_P1;PMS_P2;Temp;Humidity;BMP_temperature;BMP_pressure;BME280_temperature;BME280_humidity;BME280_pressure;Samples;Min_cycle;Max_cycle;Signal;HPM_P1;HPM_P2
2022/07/27 00:02:05;;;;;;;1999.90;999.90;;;;;;;;;;5078267;27;20396;-73
2022/07/27 00:04:34;;;;;;;1999.90;999.90;;;;;;;;;;5079461;27;20417;-72
2022/07/27 00:07:02;;;;;;;1999.90;999.90;;;;;;;;;;5089828;27;20401;-72
2022/07/27 00:09:30;;;;;;;1999.90;999.90;;;;;;;;;;5070034;27;20431;-72
2022/07/27 00:11:57;;;;;;;1999.90;999.90;;;;;;;;;;5076660;27;20409;-73
2022/07/27 00:14:25;;;;;;;1999.90;999.90;;;;;;;;;;5066123;28;20428;-73
2022/07/27 00:16:53;;;;;;;1999.90;999.90;;;;;;;;;;5059752;27;20476;-73
2022/07/27 00:19:22;;;;;;;1999.90;999.90;;;;;;;;;;5058388;27;20490;-73
2022/07/27 00:21:51;;;;;;;1999.90;999.90;;;;;;;;;;5069039;27;20393;-72
2022/07/27 00:24:19;;;;;;;1999.90;999.90;;;;;;;;;;5084856;28;20811;-72
2022/07/27 00:26:47;;;;;;;1999.90;999.90;;;;;;;;;;5083427;28;20476;-72
2022/07/27 00:29:15;;;;;;;1999.90;999.90;;;;;;;;;;5079041;28;20405;-73
2022/07/27 00:31:42;;;;;;;1999.90;999.90;;;;;;;;;;5077502;27;21155;-73
2022/07/27 00:34:10;;;;;;;1999.90;999.90;;;;;;;;;;5076554;27;20402;-73
2022/07/27 00:36:38;;;;;;;1999.90;999.90;;;;;;;;;;5058476;27;20399;-73
2022/07/27 00:39:07;;;;;;;1999.90;999.90;;;;;;;;;;5077286;27;20403;-73
2022/07/27 00:41:36;;;;;;;1999.90;999.90;;;;;;;;;;5065940;27;20400;-73
2022/07/27 00:44:05;;;;;;;1999.90;999.90;;;;;;;;;;5077667;27;20393;-74
2022/07/27 00:46:33;;;;;;;1999.90;999.90;;;;;;;;;;5066942;28;20393;-73
2022/07/27 00:49:01;;;;;;;1999.90;999.90;;;;;;;;;;5080100;27;20634;-74
2022/07/27 00:51:29;;;;;;;1999.90;999.90;;;;;;;;;;5061937;28;20396;-73
2022/07/27 00:53:57;;;;;;;1999.90;999.90;;;;;;;;;;5062987;27;20418;-73
2022/07/27 00:56:26;;;;;;;1999.90;999.90;;;;;;;;;;5092169;27;20401;-73
2022/07/27 00:58:53;;;;;;;1999.90;999.90;;;;;;;;;;5062321;28;20834;-73
2022/07/27 01:01:21;;;;;;;1999.90;999.90;;;;;;;;;;5056713;27;20402;-74
2022/07/27 01:03:49;;;;;;;1999.90;999.90;;;;;;;;;;5080032;27;20399;-73
2022/07/27 01:06:18;;;;;;;1999.90;999.90;;;;;;;;;;5079955;27;20838;-73
2022/07/27 01:09:55;;;;;;;1999.90;999.90;;;;;;;;;;5062347;28;20397;-73
2022/07/27 01:11:44;;;;;;;1999.90;999.90;;;;;;;;;;5054976;28;20408;-73
2022/07/27 01:14:12;;;;;;;1999.90;999.90;;;;;;;;;;5062572;28;20421;-73
2022/07/27 01:16:40;;;;;;;1999.90;999.90;;;;;;;;;;5061860;27;20483;-73
2022/07/27 01:19:09;;;;;;;1999.90;999.90;;;;;;;;;;5070804;27;20506;-73
2022/07/27 01:21:38;;;;;;;1999.90;999.90;;;;;;;;;;5075009;27;20397;-73
2022/07/27 01:24:07;;;;;;;1999.90;999.90;;;;;;;;;;5065982;28;20405;-73
2022/07/27 01:26:35;;;;;;;1999.90;999.90;;;;;;;;;;5060372;27;20889;-73
2022/07/27 01:29:03;;;;;;;1999.90;999.90;;;;;;;;;;5091493;27;20445;-73
2022/07/27 01:31:31;;;;;;;1999.90;999.90;;;;;;;;;;5063494;27;20417;-73
2022/07/27 01:33:59;;;;;;;1999.90;999.90;;;;;;;;;;5068525;28;20408;-73
2022/07/27 01:36:27;;;;;;;1999.90;999.90;;;;;;;;;;5079423;27;20408;-73
2022/07/27 01:38:57;;;;;;;1999.90;999.90;;;;;;;;;;5083345;27;20401;-72
2022/07/27 01:41:25;;;;;;;1999.90;999.90;;;;;;;;;;5074826;28;20399;-73
2022/07/27 01:43:53;;;;;;;1999.90;999.90;;;;;;;;;;5056047;27;20464;-72
2022/07/27 01:46:21;;;;;;;1999.90;999.90;;;;;;;;;;5080052;27;20407;-72
2022/07/27 01:48:49;;;;;;;1999.90;999.90;;;;;;;;;;5085091;27;20387;-72
2022/07/27 01:51:17;;;;;;;1999.90;999.90;;;;;;;;;;5070487;28;20464;-73
2022/07/27 01:53:45;;;;;;;1999.90;999.90;;;;;;;;;;5080939;27;20412;-72
2022/07/27 01:56:14;;;;;;;1999.90;999.90;;;;;;;;;;5084366;28;20518;-72
2022/07/27 01:58:42;;;;;;;1999.90;999.90;;;;;;;;;;5082862;27;20917;-72
2022/07/27 02:01:10;;;;;;;1999.90;999.90;;;;;;;;;;5077895;27;20469;-73
2022/07/27 02:03:38;;;;;;;1999.90;999.90;;;;;;;;;;5079116;27;20421;-72
2022/07/27 02:06:06;;;;;;;1999.90;999.90;;;;;;;;;;5078395;27;20408;-72
2022/07/27 02:08:35;;;;;;;1999.90;999.90;;;;;;;;;;5060887;27;20468;-72
2022/07/27 02:13:50;;;;;;;1999.90;999.90;;;;;;;;;;5074957;27;20776;-72
2022/07/27 02:16:18;;;;;;;1999.90;999.90;;;;;;;;;;5076997;27;20395;-72
2022/07/27 02:18:47;;;;;;;1999.90;999.90;;;;;;;;;;5078117;27;20914;-72
2022/07/27 02:21:15;;;;;;;1999.90;999.90;;;;;;;;;;5080639;27;20387;-72
2022/07/27 02:23:43;;;;;;;1999.90;999.90;;;;;;;;;;5079662;28;20509;-72
2022/07/27 02:26:11;;;;;;;1999.90;999.90;;;;;;;;;;5090908;27;20402;-72
2022/07/27 02:28:38;;;;;;;1999.90;999.90;;;;;;;;;;5071278;27;20547;-72
2022/07/27 02:31:08;;;;;;;1999.90;999.90;;;;;;;;;;5071612;27;20397;-72
2022/07/27 02:33:35;;;;;;;1999.90;999.90;;;;;;;;;;5062479;28;20413;-72
2022/07/27 02:36:03;;;;;;;1999.90;999.90;;;;;;;;;;5079243;27;20397;-72
2022/07/27 02:38:31;;;;;;;1999.90;999.90;;;;;;;;;;5061858;28;20409;-71
2022/07/27 02:40:59;;;;;;;1999.90;999.90;;;;;;;;;;5079538;27;20416;-72
2022/07/27 02:43:27;;;;;;;1999.90;999.90;;;;;;;;;;5058511;27;21661;-72
2022/07/27 02:45:55;;;;;;;1999.90;999.90;;;;;;;;;;5056387;27;20393;-72
2022/07/27 02:48:24;;;;;;;1999.90;999.90;;;;;;;;;;5087022;27;20612;-72
2022/07/27 02:50:52;;;;;;;1999.90;999.90;;;;;;;;;;5080477;27;20387;-72
2022/07/27 02:53:19;;;;;;;1999.90;999.90;;;;;;;;;;5072922;28;20404;-72
2022/07/27 02:55:47;;;;;;;1999.90;999.90;;;;;;;;;;5079842;27;20389;-72
2022/07/27 02:58:15;;;;;;;1999.90;999.90;;;;;;;;;;5082234;28;20471;-73
2022/07/27 03:00:43;;;;;;;1999.90;999.90;;;;;;;;;;5060199;28;20401;-72
2022/07/27 03:03:10;;;;;;;1999.90;999.90;;;;;;;;;;5079126;27;20401;-74
2022/07/27 03:05:39;;;;;;;1999.90;999.90;;;;;;;;;;5059263;28;20408;-73
2022/07/27 03:08:08;;;;;;;1999.90;999.90;;;;;;;;;;5091332;27;20403;-73
2022/07/27 03:10:36;;;;;;;1999.90;999.90;;;;;;;;;;5060949;28;20409;-73
2022/07/27 03:13:03;;;;;;;1999.90;999.90;;;;;;;;;;5079967;27;20994;-73
2022/07/27 03:15:32;;;;;;;1999.90;999.90;;;;;;;;;;5077321;27;21414;-73
2022/07/27 03:18:00;;;;;;;1999.90;999.90;;;;;;;;;;5061823;27;20400;-74
2022/07/27 03:20:28;;;;;;;1999.90;999.90;;;;;;;;;;5080271;27;20415;-72
2022/07/27 03:22:57;;;;;;;1999.90;999.90;;;;;;;;;;5045282;28;20409;-73
2022/07/27 03:25:25;;;;;;;1999.90;999.90;;;;;;;;;;5071656;28;20407;-73
2022/07/27 03:27:53;;;;;;;1999.90;999.90;;;;;;;;;;5072926;28;21419;-74
2022/07/27 03:30:21;;;;;;;1999.90;999.90;;;;;;;;;;5078214;27;20409;-74
2022/07/27 03:32:49;;;;;;;1999.90;999.90;;;;;;;;;;5078580;27;20942;-75
2022/07/27 03:35:16;;;;;;;1999.90;999.90;;;;;;;;;;5076044;27;20383;-74
2022/07/27 03:37:46;;;;;;;1999.90;999.90;;;;;;;;;;5080265;27;20507;-74
2022/07/27 03:40:15;;;;;;;1999.90;999.90;;;;;;;;;;5083323;28;20401;-74
2022/07/27 03:42:43;;;;;;;1999.90;999.90;;;;;;;;;;5066863;28;20414;-74
2022/07/27 03:45:11;;;;;;;1999.90;999.90;;;;;;;;;;5060728;28;20400;-73
2022/07/27 03:47:38;;;;;;;1999.90;999.90;;;;;;;;;;5080750;27;20426;-74
2022/07/27 03:50:06;;;;;;;1999.90;999.90;;;;;;;;;;5064735;28;20404;-74
2022/07/27 03:52:34;;;;;;;1999.90;999.90;;;;;;;;;;5063255;28;20447;-73
2022/07/27 03:55:02;;;;;;;1999.90;999.90;;;;;;;;;;5059401;27;20403;-74
2022/07/27 03:57:31;;;;;;;1999.90;999.90;;;;;;;;;;5074920;27;20412;-75
2022/07/27 03:59:59;;;;;;;1999.90;999.90;;;;;;;;;;5073459;27;20403;-73
2022/07/27 04:02:27;;;;;;;1999.90;999.90;;;;;;;;;;5080205;27;20512;-72
2022/07/27 04:04:55;;;;;;;1999.90;999.90;;;;;;;;;;5055675;27;20517;-73
2022/07/27 04:07:23;;;;;;;1999.90;999.90;;;;;;;;;;5050072;28;20389;-73
2022/07/27 04:09:50;;;;;;;1999.90;999.90;;;;;;;;;;5044525;28;20413;-72
2022/07/27 04:12:18;;;;;;;1999.90;999.90;;;;;;;;;;5061359;28;20499;-72
2022/07/27 04:14:48;;;;;;;1999.90;999.90;;;;;;;;;;5070215;27;20892;-72
2022/07/27 04:17:16;;;;;;;1999.90;999.90;;;;;;;;;;5079654;27;20487;-72
2022/07/27 04:20:04;;;;;;;1999.90;999.90;;;;;;;;;;5063689;28;20490;-72
2022/07/27 04:22:32;;;;;;;1999.90;999.90;;;;;;;;;;5063381;27;20419;-72
2022/07/27 04:24:59;;;;;;;1999.90;999.90;;;;;;;;;;5079787;27;20395;-72
2022/07/27 04:27:27;;;;;;;1999.90;999.90;;;;;;;;;;5061614;28;20930;-72
2022/07/27 04:29:56;;;;;;;1999.90;999.90;;;;;;;;;;5081243;28;20815;-73
2022/07/27 04:32:24;;;;;;;1999.90;999.90;;;;;;;;;;5079876;27;20416;-72
2022/07/27 04:34:52;;;;;;;1999.90;999.90;;;;;;;;;;5065266;27;20389;-72
2022/07/27 04:37:20;;;;;;;1999.90;999.90;;;;;;;;;;5078186;27;20447;-74
2022/07/27 04:39:47;;;;;;;1999.90;999.90;;;;;;;;;;5078074;28;20387;-72
2022/07/27 04:42:15;;;;;;;1999.90;999.90;;;;;;;;;;5068649;27;20848;-73
2022/07/27 04:44:43;;;;;;;1999.90;999.90;;;;;;;;;;5069617;28;20509;-73
2022/07/27 04:47:12;;;;;;;1999.90;999.90;;;;;;;;;;5068839;28;20420;-73
2022/07/27 04:49:41;;;;;;;1999.90;999.90;;;;;;;;;;5086763;27;20486;-73
2022/07/27 04:52:09;;;;;;;1999.90;999.90;;;;;;;;;;5070421;27;21842;-73
2022/07/27 04:54:36;;;;;;;1999.90;999.90;;;;;;;;;;5086949;27;20400;-73
2022/07/27 04:57:04;;;;;;;1999.90;999.90;;;;;;;;;;5053972;27;20899;-72
2022/07/27 04:59:32;;;;;;;1999.90;999.90;;;;;;;;;;5070635;27;20458;-72
2022/07/27 05:02:00;;;;;;;1999.90;999.90;;;;;;;;;;5068832;28;20376;-74
2022/07/27 05:04:29;;;;;;;1999.90;999.90;;;;;;;;;;5083927;27;20590;-72
2022/07/27 05:06:57;;;;;;;1999.90;999.90;;;;;;;;;;5087315;27;20474;-76
2022/07/27 05:09:25;;;;;;;1999.90;999.90;;;;;;;;;;5066711;28;22018;-72
2022/07/27 05:11:53;;;;;;;1999.90;999.90;;;;;;;;;;5067898;27;20403;-73
2022/07/27 05:14:22;;;;;;;1999.90;999.90;;;;;;;;;;5067550;27;20954;-74
2022/07/27 05:16:49;;;;;;;1999.90;999.90;;;;;;;;;;5066775;27;20388;-75
2022/07/27 05:19:18;;;;;;;1999.90;999.90;;;;;;;;;;5082065;27;20446;-73
2022/07/27 05:21:47;;;;;;;1999.90;999.90;;;;;;;;;;5087673;27;20873;-73
2022/07/27 05:24:16;;;;;;;1999.90;999.90;;;;;;;;;;5070760;28;20400;-74
2022/07/27 05:26:45;;;;;;;1999.90;999.90;;;;;;;;;;5056001;28;20416;-73
2022/07/27 05:29:12;;;;;;;1999.90;999.90;;;;;;;;;;5080129;28;20482;-73
2022/07/27 05:31:41;;;;;;;1999.90;999.90;;;;;;;;;;5069292;28;20492;-72
2022/07/27 05:34:09;;;;;;;1999.90;999.90;;;;;;;;;;5066185;27;20389;-72
2022/07/27 05:36:36;;;;;;;1999.90;999.90;;;;;;;;;;5068235;27;20404;-73
2022/07/27 05:39:05;;;;;;;1999.90;999.90;;;;;;;;;;5074284;28;20413;-71
2022/07/27 05:41:40;;;;;;;1999.90;999.90;;;;;;;;;;5088166;28;21194;-71
2022/07/27 05:44:07;;;;;;;1999.90;999.90;;;;;;;;;;5068675;28;20504;-71
2022/07/27 05:46:36;;;;;;;1999.90;999.90;;;;;;;;;;5090648;27;20556;-73
2022/07/27 05:49:04;;;;;;;1999.90;999.90;;;;;;;;;;5068242;28;20418;-71
2022/07/27 05:51:32;;;;;;;1999.90;999.90;;;;;;;;;;5075932;28;20431;-72
2022/07/27 05:54:00;;;;;;;1999.90;999.90;;;;;;;;;;5066880;27;20398;-71
2022/07/27 05:56:30;;;;;;;1999.90;999.90;;;;;;;;;;5083697;27;20394;-71
2022/07/27 05:58:58;;;;;;;1999.90;999.90;;;;;;;;;;5062574;28;20404;-72
2022/07/27 06:01:33;;;;;;;1999.90;999.90;;;;;;;;;;5075745;28;20415;-71
2022/07/27 06:04:01;;;;;;;1999.90;999.90;;;;;;;;;;5081211;27;20416;-71
2022/07/27 06:09:14;;;;;;;1999.90;999.90;;;;;;;;;;5080109;27;20517;-71
2022/07/27 06:11:43;;;;;;;1999.90;999.90;;;;;;;;;;5065066;28;20407;-70
2022/07/27 06:14:11;;;;;;;1999.90;999.90;;;;;;;;;;5080844;27;20385;-71
2022/07/27 06:16:39;;;;;;;1999.90;999.90;;;;;;;;;;5083874;27;20408;-73
2022/07/27 06:19:07;;;;;;;1999.90;999.90;;;;;;;;;;5079526;27;20417;-71
2022/07/27 06:21:35;;;;;;;1999.90;999.90;;;;;;;;;;5074831;28;20417;-71
2022/07/27 06:24:03;;;;;;;1999.90;999.90;;;;;;;;;;5085598;27;21067;-72
2022/07/27 06:26:31;;;;;;;1999.90;999.90;;;;;;;;;;5083797;27;20362;-72
2022/07/27 06:29:00;;;;;;;1999.90;999.90;;;;;;;;;;5084837;27;20398;-72
2022/07/27 06:31:29;;;;;;;1999.90;999.90;;;;;;;;;;5079916;27;20393;-73
2022/07/27 06:34:02;;;;;;;1999.90;999.90;;;;;;;;;;5073177;27;20403;-72
2022/07/27 06:36:34;;;;;;;1999.90;999.90;;;;;;;;;;5063353;28;20389;-73
2022/07/27 06:39:02;;;;;;;1999.90;999.90;;;;;;;;;;5081183;27;21250;-70
2022/07/27 06:41:32;;;;;;;1999.90;999.90;;;;;;;;;;5080069;27;20416;-72
2022/07/27 06:44:02;;;;;;;1999.90;999.90;;;;;;;;;;5082913;27;20909;-71
2022/07/27 06:46:29;;;;;;;1999.90;999.90;;;;;;;;;;5074071;27;20415;-71
2022/07/27 06:48:57;;;;;;;1999.90;999.90;;;;;;;;;;5079930;27;20389;-72
2022/07/27 06:51:25;;;;;;;1999.90;999.90;;;;;;;;;;5066782;27;20412;-72
2022/07/27 06:53:53;;;;;;;1999.90;999.90;;;;;;;;;;5064905;27;20395;-72
2022/07/27 06:56:21;;;;;;;1999.90;999.90;;;;;;;;;;5059940;28;20429;-72
2022/07/27 06:58:49;;;;;;;1999.90;999.90;;;;;;;;;;5079213;27;20394;-72
2022/07/27 07:01:19;;;;;;;1999.90;999.90;;;;;;;;;;5073993;28;20404;-72
2022/07/27 07:03:46;;;;;;;1999.90;999.90;;;;;;;;;;5065461;27;20393;-72
2022/07/27 07:06:14;;;;;;;1999.90;999.90;;;;;;;;;;5089078;27;20456;-72
2022/07/27 07:08:42;;;;;;;1999.90;999.90;;;;;;;;;;5061316;28;20907;-72
2022/07/27 07:11:10;;;;;;;1999.90;999.90;;;;;;;;;;5066128;28;20529;-72
2022/07/27 07:13:38;;;;;;;1999.90;999.90;;;;;;;;;;5076912;27;20444;-72
2022/07/27 07:16:11;;;;;;;1999.90;999.90;;;;;;;;;;5080340;27;20393;-72
2022/07/27 07:18:40;;;;;;;1999.90;999.90;;;;;;;;;;5081283;27;20401;-72
2022/07/27 07:21:08;;;;;;;1999.90;999.90;;;;;;;;;;5076189;27;20413;-72
2022/07/27 07:23:36;;;;;;;1999.90;999.90;;;;;;;;;;5077600;27;20807;-72
2022/07/27 07:26:04;;;;;;;1999.90;999.90;;;;;;;;;;5074158;27;20416;-72
2022/07/27 07:28:31;;;;;;;1999.90;999.90;;;;;;;;;;5070864;27;20353;-72
2022/07/27 07:30:59;;;;;;;1999.90;999.90;;;;;;;;;;5056618;27;20416;-74
2022/07/27 07:33:27;;;;;;;1999.90;999.90;;;;;;;;;;5075234;27;20400;-73
2022/07/27 07:35:56;;;;;;;1999.90;999.90;;;;;;;;;;5078048;27;20943;-73
2022/07/27 07:38:41;;;;;;;1999.90;999.90;;;;;;;;;;5078985;27;20409;-73
2022/07/27 07:41:09;;;;;;;1999.90;999.90;;;;;;;;;;5072244;27;20478;-74
2022/07/27 07:43:37;;;;;;;1999.90;999.90;;;;;;;;;;5056696;28;20396;-73
2022/07/27 07:46:05;;;;;;;1999.90;999.90;;;;;;;;;;5084886;27;20387;-74
2022/07/27 07:48:33;;;;;;;1999.90;999.90;;;;;;;;;;5055546;27;20383;-73
2022/07/27 07:51:02;;;;;;;1999.90;999.90;;;;;;;;;;5053896;27;20403;-73
2022/07/27 07:53:30;;;;;;;1999.90;999.90;;;;;;;;;;5039798;27;20470;-73
2022/07/27 07:55:58;;;;;;;1999.90;999.90;;;;;;;;;;5058906;27;20413;-73
2022/07/27 07:58:27;;;;;;;1999.90;999.90;;;;;;;;;;5059388;28;20431;-74
2022/07/27 08:00:55;;;;;;;1999.90;999.90;;;;;;;;;;5077437;27;20395;-74
2022/07/27 08:03:22;;;;;;;1999.90;999.90;;;;;;;;;;5077673;27;20521;-74
2022/07/27 08:05:50;;;;;;;1999.90;999.90;;;;;;;;;;5063256;28;20844;-74
2022/07/27 08:08:19;;;;;;;1999.90;999.90;;;;;;;;;;5066023;28;20432;-73
2022/07/27 08:10:51;;;;;;;1999.90;999.90;;;;;;;;;;5071603;27;20409;-75
2022/07/27 08:13:19;;;;;;;1999.90;999.90;;;;;;;;;;5055490;27;20912;-73
2022/07/27 08:15:49;;;;;;;1999.90;999.90;;;;;;;;;;5075758;27;20385;-73
2022/07/27 08:18:17;;;;;;;1999.90;999.90;;;;;;;;;;5058855;27;20387;-73
2022/07/27 08:20:45;;;;;;;1999.90;999.90;;;;;;;;;;5073068;27;21341;-73
2022/07/27 08:23:13;;;;;;;1999.90;999.90;;;;;;;;;;5052573;27;21300;-73
2022/07/27 08:25:42;;;;;;;1999.90;999.90;;;;;;;;;;5062146;27;21869;-72
2022/07/27 08:28:10;;;;;;;1999.90;999.90;;;;;;;;;;5075334;27;20415;-73
2022/07/27 08:30:38;;;;;;;1999.90;999.90;;;;;;;;;;5073050;27;20445;-72
2022/07/27 08:33:07;;;;;;;1999.90;999.90;;;;;;;;;;5071941;27;20468;-72
2022/07/27 08:35:34;;;;;;;1999.90;999.90;;;;;;;;;;5056532;28;20434;-72
2022/07/27 08:38:04;;;;;;;1999.90;999.90;;;;;;;;;;5056150;27;20659;-73
2022/07/27 08:40:32;;;;;;;1999.90;999.90;;;;;;;;;;5071434;27;20516;-73
2022/07/27 08:43:09;;;;;;;1999.90;999.90;;;;;;;;;;5049314;27;20432;-72
2022/07/27 08:45:37;;;;;;;1999.90;999.90;;;;;;;;;;5054326;27;20393;-72
2022/07/27 08:48:05;;;;;;;1999.90;999.90;;;;;;;;;;5057426;27;20828;-72
2022/07/27 08:50:34;;;;;;;1999.90;999.90;;;;;;;;;;5076431;27;20458;-73
2022/07/27 08:53:03;;;;;;;1999.90;999.90;;;;;;;;;;5055670;27;20858;-72
2022/07/27 08:55:31;;;;;;;1999.90;999.90;;;;;;;;;;5055325;27;20488;-72
2022/07/27 08:58:00;;;;;;;1999.90;999.90;;;;;;;;;;5055398;27;20465;-73
2022/07/27 09:00:32;;;;;;;1999.90;999.90;;;;;;;;;;5057062;27;20407;-74
2022/07/27 09:02:59;;;;;;;1999.90;999.90;;;;;;;;;;5057687;27;20412;-72
2022/07/27 09:05:27;;;;;;;1999.90;999.90;;;;;;;;;;5055428;27;21795;-72
2022/07/27 09:08:11;;;;;;;1999.90;999.90;;;;;;;;;;5059389;28;20405;-73
2022/07/27 09:10:39;;;;;;;1999.90;999.90;;;;;;;;;;5062805;27;20405;-74
2022/07/27 09:16:28;;;;;;;1999.90;999.90;;;;;;;;;;5144512;27;20385;-80
2022/07/27 09:19:16;;;;;;;1999.90;999.90;;;;;;;;;;5145140;27;20399;-82
2022/07/27 09:21:44;;;;;;;1999.90;999.90;;;;;;;;;;5162917;27;20436;-80
2022/07/27 09:24:13;;;;;;;1999.90;999.90;;;;;;;;;;5146375;27;20853;-79
2022/07/27 09:27:02;;;;;;;1999.90;999.90;;;;;;;;;;5164900;27;20390;-79
2022/07/27 09:29:34;;;;;;;1999.90;999.90;;;;;;;;;;5168941;27;20347;-83
2022/07/27 09:32:13;;;;;;;1999.90;999.90;;;;;;;;;;5141060;27;20379;-84
2022/07/27 09:34:42;;;;;;;1999.90;999.90;;;;;;;;;;5163416;27;20361;-82
2022/07/27 09:37:11;;;;;;;1999.90;999.90;;;;;;;;;;5185240;27;20375;-80
2022/07/27 09:39:39;;;;;;;1999.90;999.90;;;;;;;;;;5158400;27;20358;-81
2022/07/27 09:42:15;;;;;;;1999.90;999.90;;;;;;;;;;5169712;27;20374;-82
2022/07/27 09:45:03;;;;;;;1999.90;999.90;;;;;;;;;;5169893;27;20389;-81
2022/07/27 09:47:33;;;;;;;1999.90;999.90;;;;;;;;;;5191925;27;20421;-82
2022/07/27 09:50:16;;;;;;;1999.90;999.90;;;;;;;;;;5174753;27;20343;-83
2022/07/27 09:52:44;;;;;;;1999.90;999.90;;;;;;;;;;5187180;27;20441;-79
2022/07/27 09:55:12;;;;;;;1999.90;999.90;;;;;;;;;;5182884;27;20402;-80
2022/07/27 09:57:51;;;;;;;1999.90;999.90;;;;;;;;;;5150201;27;20421;-80
2022/07/27 10:00:19;;;;;;;1999.90;999.90;;;;;;;;;;5167607;27;20339;-84
2022/07/27 10:02:49;;;;;;;1999.90;999.90;;;;;;;;;;5166523;27;20425;-81
2022/07/27 10:05:20;;;;;;;1999.90;999.90;;;;;;;;;;5165525;27;20417;-81
2022/07/27 10:07:48;;;;;;;1999.90;999.90;;;;;;;;;;5164174;27;20362;-80
2022/07/27 10:10:16;;;;;;;1999.90;999.90;;;;;;;;;;5165408;27;20406;-81
2022/07/27 10:12:45;;;;;;;1999.90;999.90;;;;;;;;;;5185843;27;20406;-82
2022/07/27 10:15:21;;;;;;;1999.90;999.90;;;;;;;;;;5167663;27;20393;-80
2022/07/27 10:17:54;;;;;;;1999.90;999.90;;;;;;;;;;5167230;27;20489;-82
2022/07/27 10:20:22;;;;;;;1999.90;999.90;;;;;;;;;;5177669;27;20400;-84
2022/07/27 10:22:51;;;;;;;1999.90;999.90;;;;;;;;;;5140092;27;20404;-82
2022/07/27 10:25:19;;;;;;;1999.90;999.90;;;;;;;;;;5148546;27;20369;-85
2022/07/27 10:27:48;;;;;;;1999.90;999.90;;;;;;;;;;5185962;27;20372;-81
2022/07/27 10:30:17;;;;;;;1999.90;999.90;;;;;;;;;;5180511;27;20437;-83
2022/07/27 10:32:55;;;;;;;1999.90;999.90;;;;;;;;;;5152513;27;20435;-84
2022/07/27 10:35:34;;;;;;;1999.90;999.90;;;;;;;;;;5168893;27;20379;-83
2022/07/27 10:38:06;;;;;;;1999.90;999.90;;;;;;;;;;5168340;27;20351;-82
2022/07/27 10:40:38;;;;;;;1999.90;999.90;;;;;;;;;;5150524;27;21096;-83
2022/07/27 10:43:07;;;;;;;1999.90;999.90;;;;;;;;;;5183774;27;20410;-82
2022/07/27 10:45:39;;;;;;;1999.90;999.90;;;;;;;;;;5154778;27;20389;-81
2022/07/27 10:48:32;;;;;;;1999.90;999.90;;;;;;;;;;5162572;27;20394;-82
2022/07/27 10:51:01;;;;;;;1999.90;999.90;;;;;;;;;;5145134;27;20366;-81
2022/07/27 10:53:34;;;;;;;1999.90;999.90;;;;;;;;;;5174793;27;20391;-80
2022/07/27 10:56:43;;;;;;;1999.90;999.90;;;;;;;;;;5176892;27;20409;-81
2022/07/27 10:59:11;;;;;;;1999.90;999.90;;;;;;;;;;5154147;27;20425;-77
2022/07/27 11:01:55;;;;;;;1999.90;999.90;;;;;;;;;;5155933;27;20339;-79
2022/07/27 11:04:23;;;;;;;1999.90;999.90;;;;;;;;;;5158928;27;20378;-81
2022/07/27 11:06:56;;;;;;;1999.90;999.90;;;;;;;;;;5171196;27;20387;-81
2022/07/27 11:09:45;;;;;;;1999.90;999.90;;;;;;;;;;5127381;27;20392;-81
2022/07/27 11:12:31;;;;;;;1999.90;999.90;;;;;;;;;;5168187;27;20397;-79
2022/07/27 11:15:00;;;;;;;1999.90;999.90;;;;;;;;;;5200804;27;20435;-82
2022/07/27 11:17:29;;;;;;;1999.90;999.90;;;;;;;;;;5160696;27;20367;-83
2022/07/27 11:20:21;;;;;;;1999.90;999.90;;;;;;;;;;5156151;27;20435;-80
2022/07/27 11:22:50;;;;;;;1999.90;999.90;;;;;;;;;;5178876;27;20887;-82
2022/07/27 11:25:38;;;;;;;1999.90;999.90;;;;;;;;;;5164505;27;20439;-83
2022/07/27 11:28:07;;;;;;;1999.90;999.90;;;;;;;;;;5163904;27;20446;-82
2022/07/27 11:30:34;;;;;;;1999.90;999.90;;;;;;;;;;5154166;27;20386;-83
2022/07/27 11:33:03;;;;;;;1999.90;999.90;;;;;;;;;;5160290;27;20350;-83
2022/07/27 11:35:31;;;;;;;1999.90;999.90;;;;;;;;;;5171544;27;20357;-82
2022/07/27 11:38:02;;;;;;;1999.90;999.90;;;;;;;;;;5174246;27;20418;-81
2022/07/27 11:40:42;;;;;;;1999.90;999.90;;;;;;;;;;5156355;27;20461;-82
2022/07/27 11:43:33;;;;;;;1999.90;999.90;;;;;;;;;;5158741;27;21262;-79
2022/07/27 11:46:22;;;;;;;1999.90;999.90;;;;;;;;;;5155285;27;20370;-82
2022/07/27 11:48:52;;;;;;;1999.90;999.90;;;;;;;;;;5175196;27;20405;-80
2022/07/27 11:51:37;;;;;;;1999.90;999.90;;;;;;;;;;5159049;27;20415;-80
2022/07/27 11:54:07;;;;;;;1999.90;999.90;;;;;;;;;;5140799;27;20377;-79
2022/07/27 11:56:36;;;;;;;1999.90;999.90;;;;;;;;;;5177052;27;20392;-80
2022/07/27 11:59:09;;;;;;;1999.90;999.90;;;;;;;;;;5131756;27;20439;-82
2022/07/27 12:01:37;;;;;;;1999.90;999.90;;;;;;;;;;5156441;27;20592;-81
2022/07/27 12:04:11;;;;;;;1999.90;999.90;;;;;;;;;;5151851;27;20386;-83
2022/07/27 12:06:40;;;;;;;1999.90;999.90;;;;;;;;;;5149441;27;20410;-81
2022/07/27 12:09:12;;;;;;;1999.90;999.90;;;;;;;;;;5189739;27;20417;-82
2022/07/27 12:11:49;;;;;;;1999.90;999.90;;;;;;;;;;5128916;27;20517;-81
2022/07/27 12:14:17;;;;;;;1999.90;999.90;;;;;;;;;;5164559;27;20376;-83
2022/07/27 12:16:45;;;;;;;1999.90;999.90;;;;;;;;;;5114458;27;20477;-82
2022/07/27 12:19:21;;;;;;;1999.90;999.90;;;;;;;;;;5132948;27;21563;-81
2022/07/27 12:21:54;;;;;;;1999.90;999.90;;;;;;;;;;5154565;27;20484;-80
2022/07/27 12:24:33;;;;;;;1999.90;999.90;;;;;;;;;;5169677;27;20856;-82
2022/07/27 12:27:02;;;;;;;1999.90;999.90;;;;;;;;;;5147314;27;20413;-82
2022/07/27 12:29:34;;;;;;;1999.90;999.90;;;;;;;;;;5166109;27;20421;-81
2022/07/27 12:32:03;;;;;;;1999.90;999.90;;;;;;;;;;5156695;27;20386;-80
2022/07/27 12:34:35;;;;;;;1999.90;999.90;;;;;;;;;;5141087;27;20398;-82
2022/07/27 12:37:11;;;;;;;1999.90;999.90;;;;;;;;;;5167950;27;20393;-79
2022/07/27 12:39:42;;;;;;;1999.90;999.90;;;;;;;;;;5159821;27;20382;-81
2022/07/27 12:42:11;;;;;;;1999.90;999.90;;;;;;;;;;5153163;27;20915;-81
2022/07/27 12:44:39;;;;;;;1999.90;999.90;;;;;;;;;;5158811;27;20438;-82
2022/07/27 12:50:02;;;;;;;1999.90;999.90;;;;;;;;;;5138983;27;20454;-79
2022/07/27 12:52:30;;;;;;;1999.90;999.90;;;;;;;;;;5167059;27;20717;-81
2022/07/27 12:55:00;;;;;;;1999.90;999.90;;;;;;;;;;5145443;27;20351;-78
2022/07/27 12:57:28;;;;;;;1999.90;999.90;;;;;;;;;;5151707;27;20228;-77
2022/07/27 13:00:17;;;;;;;1999.90;999.90;;;;;;;;;;5113636;27;20224;-81
2022/07/27 13:02:45;;;;;;;1999.90;999.90;;;;;;;;;;5137646;27;21001;-78
2022/07/27 13:05:14;;;;;;;1999.90;999.90;;;;;;;;;;5163476;27;20260;-77
2022/07/27 13:07:44;;;;;;;1999.90;999.90;;;;;;;;;;5125734;27;20709;-77
2022/07/27 13:10:17;;;;;;;1999.90;999.90;;;;;;;;;;5160339;27;20311;-76
2022/07/27 13:12:46;;;;;;;1999.90;999.90;;;;;;;;;;5151915;27;20234;-80
2022/07/27 13:15:14;;;;;;;1999.90;999.90;;;;;;;;;;5144998;27;22174;-79
2022/07/27 13:17:42;;;;;;;1999.90;999.90;;;;;;;;;;5134097;27;20318;-77
2022/07/27 13:20:11;;;;;;;1999.90;999.90;;;;;;;;;;5148337;27;20280;-77
2022/07/27 13:22:39;;;;;;;1999.90;999.90;;;;;;;;;;5151011;27;20254;-78
2022/07/27 13:25:08;;;;;;;1999.90;999.90;;;;;;;;;;5160940;27;20311;-78
2022/07/27 13:27:44;;;;;;;1999.90;999.90;;;;;;;;;;5132897;27;20230;-76
2022/07/27 13:30:14;;;;;;;1999.90;999.90;;;;;;;;;;5128734;27;20425;-77
2022/07/27 13:32:42;;;;;;;1999.90;999.90;;;;;;;;;;5166940;27;20217;-77
2022/07/27 13:35:11;;;;;;;1999.90;999.90;;;;;;;;;;5176513;27;20240;-83
2022/07/27 13:37:39;;;;;;;1999.90;999.90;;;;;;;;;;5171218;27;22042;-79
2022/07/27 13:40:08;;;;;;;1999.90;999.90;;;;;;;;;;5166090;27;20386;-79
2022/07/27 13:42:36;;;;;;;1999.90;999.90;;;;;;;;;;5147467;27;20272;-77
2022/07/27 13:45:06;;;;;;;1999.90;999.90;;;;;;;;;;5138783;27;21324;-72
2022/07/27 13:47:38;;;;;;;1999.90;999.90;;;;;;;;;;5169992;27;20220;-77
2022/07/27 13:50:07;;;;;;;1999.90;999.90;;;;;;;;;;5149142;27;20283;-78
2022/07/27 13:52:44;;;;;;;1999.90;999.90;;;;;;;;;;5122604;27;20918;-78
2022/07/27 13:55:13;;;;;;;1999.90;999.90;;;;;;;;;;5168537;27;20258;-78
2022/07/27 13:57:41;;;;;;;1999.90;999.90;;;;;;;;;;5143029;27;20228;-77
2022/07/27 14:00:11;;;;;;;1999.90;999.90;;;;;;;;;;5148980;27;20710;-77
2022/07/27 14:02:39;;;;;;;1999.90;999.90;;;;;;;;;;5162575;27;20220;-76
2022/07/27 14:05:09;;;;;;;1999.90;999.90;;;;;;;;;;5135934;27;20688;-77
2022/07/27 14:07:39;;;;;;;1999.90;999.90;;;;;;;;;;5168730;27;20216;-76
2022/07/27 14:12:57;;;;;;;1999.90;999.90;;;;;;;;;;5169586;27;20232;-77